Time;durP1;ratioP1;P1;durP2;ratioP2;P2;SDS_P1;SDS_P2;PMS_P1;PMS_P2;Temp;Humidity;BMP_temperature;BMP_pressure;BME280_temperature;BME280_humidity;BME280_pressure;Samples;Min_cycle;Max_cycle;Signal;HPM_P1;HPM_P2
2021/08/19 00:01:17;;;;;;;;;;;;;;;16.70;100.00;98918.66;5075509;28;19924;-74
2021/08/19 00:03:45;;;;;;;;;;;;;;;16.58;100.00;98911.13;5099599;28;19930;-74
2021/08/19 00:06:13;;;;;;;;;;;;;;;17.04;100.00;98904.28;5095476;28;20421;-74
2021/08/19 00:08:40;;;;;;;;;;;;;;;16.70;100.00;98907.38;5113420;28;20435;-74
2021/08/19 00:11:11;;;;;;;;;;;;;;;16.83;100.00;98908.00;5113350;28;20456;-74
2021/08/19 00:13:39;;;;;;;;;;;;;;;16.80;100.00;98904.09;5110331;28;19950;-75
2021/08/19 00:16:09;;;;;;;;;;;;;;;16.57;100.00;98901.09;5103411;28;20034;-74
2021/08/19 00:18:37;;;;;;;;;;;;;;;16.91;100.00;98898.00;5113498;28;19924;-74
2021/08/19 00:21:05;;;;;;;;;;;;;;;17.03;100.00;98894.22;5108716;28;19931;-74
2021/08/19 00:23:34;;;;;;;;;;;;;;;17.07;100.00;98881.53;5104139;28;19924;-74
2021/08/19 00:26:03;;;;;;;;;;;;;;;17.10;100.00;98885.47;5113332;28;19924;-74
2021/08/19 00:28:30;;;;;;;;;;;;;;;17.28;100.00;98877.72;5113470;28;20373;-74
2021/08/19 00:30:57;;;;;;;;;;;;;;;17.12;100.00;98877.28;5113476;28;19924;-74
2021/08/19 00:33:24;;;;;;;;;;;;;;;17.16;100.00;98877.94;5113436;28;19965;-75
2021/08/19 00:35:52;;;;;;;;;;;;;;;17.24;100.00;98871.47;5094999;28;19923;-75
2021/08/19 00:38:19;;;;;;;;;;;;;;;16.88;100.00;98877.16;5113125;28;20333;-75
2021/08/19 00:40:47;;;;;;;;;;;;;;;17.10;100.00;98882.63;5095247;28;20271;-74
2021/08/19 00:43:14;;;;;;;;;;;;;;;17.04;100.00;98876.06;5104564;28;20030;-73
2021/08/19 00:45:41;;;;;;;;;;;;;;;17.10;100.00;98879.81;5086094;28;19928;-73
2021/08/19 00:48:08;;;;;;;;;;;;;;;17.15;100.00;98877.13;5112446;28;20017;-74
2021/08/19 00:50:36;;;;;;;;;;;;;;;16.91;100.00;98876.22;5113311;28;19923;-74
2021/08/19 00:53:03;;;;;;;;;;;;;;;17.17;100.00;98859.72;5116080;28;19924;-74
2021/08/19 00:55:30;;;;;;;;;;;;;;;17.03;100.00;98866.00;5106858;28;20490;-74
2021/08/19 00:57:58;;;;;;;;;;;;;;;16.95;100.00;98862.72;5116795;28;19977;-74
2021/08/19 01:00:25;;;;;;;;;;;;;;;16.78;100.00;98855.81;5114862;27;19923;-74
2021/08/19 01:02:54;;;;;;;;;;;;;;;17.09;100.00;98864.91;5096277;28;19923;-74
2021/08/19 01:05:28;;;;;;;;;;;;;;;17.11;100.00;98864.44;5116568;28;19930;-74
2021/08/19 01:07:57;;;;;;;;;;;;;;;17.19;100.00;98857.22;5116182;28;20006;-74
2021/08/19 01:10:25;;;;;;;;;;;;;;;17.30;100.00;98858.28;5116655;28;19958;-74
2021/08/19 01:12:52;;;;;;;;;;;;;;;17.27;100.00;98852.78;5106327;28;20313;-74
2021/08/19 01:15:20;;;;;;;;;;;;;;;17.10;100.00;98855.16;5082245;28;20150;-74
2021/08/19 01:18:07;;;;;;;;;;;;;;;17.18;100.00;98858.47;5107057;28;19931;-74
2021/08/19 01:20:35;;;;;;;;;;;;;;;17.46;100.00;98849.47;5098365;28;19923;-74
2021/08/19 01:23:03;;;;;;;;;;;;;;;17.39;100.00;98843.34;5098085;28;19928;-74
2021/08/19 01:25:30;;;;;;;;;;;;;;;17.05;100.00;98847.34;5116341;28;19931;-74
2021/08/19 01:27:57;;;;;;;;;;;;;;;17.14;100.00;98846.56;5098117;28;20014;-74
2021/08/19 01:30:25;;;;;;;;;;;;;;;17.25;100.00;98849.69;5098230;28;20022;-74
2021/08/19 01:32:52;;;;;;;;;;;;;;;17.13;100.00;98845.00;5100005;28;20435;-74
2021/08/19 01:35:23;;;;;;;;;;;;;;;17.08;100.00;98845.63;5108383;28;19923;-74
2021/08/19 01:37:51;;;;;;;;;;;;;;;17.12;100.00;98843.41;5097620;28;19932;-74
2021/08/19 01:40:18;;;;;;;;;;;;;;;17.17;100.00;98842.78;5077574;28;20005;-74
2021/08/19 01:42:45;;;;;;;;;;;;;;;17.24;100.00;98846.06;5111146;28;20324;-74
2021/08/19 01:45:15;;;;;;;;;;;;;;;17.29;100.00;98844.63;5115844;28;19927;-74
2021/08/19 01:47:42;;;;;;;;;;;;;;;17.35;100.00;98842.75;5115913;28;19927;-74
2021/08/19 01:50:09;;;;;;;;;;;;;;;17.17;100.00;98842.78;5115482;28;20016;-74
2021/08/19 01:52:36;;;;;;;;;;;;;;;16.88;100.00;98842.50;5115528;28;19931;-74
2021/08/19 01:55:03;;;;;;;;;;;;;;;17.27;100.00;98847.94;5113576;28;20016;-74
2021/08/19 01:57:30;;;;;;;;;;;;;;;17.44;100.00;98852.00;5097479;28;19931;-74
2021/08/19 01:59:58;;;;;;;;;;;;;;;17.21;100.00;98837.75;5080687;28;19931;-74
2021/08/19 02:02:25;;;;;;;;;;;;;;;17.29;100.00;98839.00;5097423;28;19923;-74
2021/08/19 02:04:52;;;;;;;;;;;;;;;17.22;100.00;98830.88;5115613;28;19967;-74
2021/08/19 02:07:19;;;;;;;;;;;;;;;17.25;100.00;98827.09;5115242;28;19927;-74
2021/08/19 02:09:46;;;;;;;;;;;;;;;17.14;100.00;98832.44;5097358;28;19928;-74
2021/08/19 02:12:13;;;;;;;;;;;;;;;17.28;100.00;98837.44;5096997;28;19923;-74
2021/08/19 02:14:40;;;;;;;;;;;;;;;17.54;100.00;98822.47;5115439;28;19924;-74
2021/08/19 02:17:07;;;;;;;;;;;;;;;17.53;100.00;98834.25;5115205;28;19923;-74
2021/08/19 02:19:34;;;;;;;;;;;;;;;17.30;100.00;98824.41;5115112;28;19928;-74
2021/08/19 02:22:01;;;;;;;;;;;;;;;17.25;100.00;98815.81;5115197;28;20030;-74
2021/08/19 02:24:28;;;;;;;;;;;;;;;17.51;100.00;98819.81;5097030;28;19930;-74
2021/08/19 02:26:55;;;;;;;;;;;;;;;17.66;100.00;98817.91;5097096;28;19931;-74
2021/08/19 02:29:48;;;;;;;;;;;;;;;17.23;100.00;98818.31;5097146;28;19923;-74
2021/08/19 02:32:16;;;;;;;;;;;;;;;17.53;100.00;98817.31;5097183;28;19924;-74
2021/08/19 02:34:43;;;;;;;;;;;;;;;17.39;100.00;98820.75;5114740;28;20032;-74
2021/08/19 02:37:10;;;;;;;;;;;;;;;17.38;100.00;98824.84;5114722;28;19993;-74
2021/08/19 02:39:37;;;;;;;;;;;;;;;17.57;100.00;98817.91;5096687;28;19930;-74
2021/08/19 02:42:04;;;;;;;;;;;;;;;17.36;100.00;98810.41;5115009;28;19959;-74
2021/08/19 02:44:31;;;;;;;;;;;;;;;17.43;100.00;98816.53;5096295;28;19923;-74
2021/08/19 02:46:58;;;;;;;;;;;;;;;16.85;100.00;98823.69;5096193;28;19923;-74
2021/08/19 02:49:25;;;;;;;;;;;;;;;17.03;100.00;98818.03;5096471;28;20457;-75
2021/08/19 02:51:52;;;;;;;;;;;;;;;16.94;100.00;98812.38;5114825;28;20488;-74
2021/08/19 02:54:19;;;;;;;;;;;;;;;16.79;100.00;98819.94;5113886;28;19956;-74
2021/08/19 02:56:46;;;;;;;;;;;;;;;16.58;100.00;98812.41;5114360;28;20286;-74
2021/08/19 02:59:13;;;;;;;;;;;;;;;17.01;100.00;98810.03;5096550;28;20268;-74
2021/08/19 03:01:40;;;;;;;;;;;;;;;17.01;100.00;98806.44;5114447;28;19931;-74
2021/08/19 03:04:07;;;;;;;;;;;;;;;17.24;100.00;98800.09;5114528;28;19924;-74
2021/08/19 03:06:34;;;;;;;;;;;;;;;17.10;100.00;98797.97;5114492;28;19924;-74
2021/08/19 03:09:01;;;;;;;;;;;;;;;16.91;100.00;98797.19;5114402;28;20012;-74
2021/08/19 03:11:28;;;;;;;;;;;;;;;16.69;100.00;98802.22;5096301;28;20311;-74
2021/08/19 03:13:55;;;;;;;;;;;;;;;16.61;100.00;98805.84;5113891;28;20386;-74
2021/08/19 03:16:22;;;;;;;;;;;;;;;16.44;100.00;98790.47;5075672;28;19953;-74
2021/08/19 03:18:48;;;;;;;;;;;;;;;16.64;100.00;98804.88;5093582;28;20411;-74
2021/08/19 03:21:19;;;;;;;;;;;;;;;16.54;100.00;98804.09;5114397;28;19924;-74
2021/08/19 03:23:47;;;;;;;;;;;;;;;16.40;100.00;98795.47;5096194;28;20362;-74
2021/08/19 03:26:15;;;;;;;;;;;;;;;16.51;100.00;98798.63;5095998;28;20387;-74
2021/08/19 03:28:42;;;;;;;;;;;;;;;16.66;100.00;98788.28;5114063;28;19970;-74
2021/08/19 03:31:09;;;;;;;;;;;;;;;16.44;100.00;98793.28;5114292;28;19924;-74
2021/08/19 03:33:40;;;;;;;;;;;;;;;16.42;100.00;98793.72;5096078;28;19924;-74
2021/08/19 03:36:07;;;;;;;;;;;;;;;16.53;100.00;98801.75;5114242;28;19924;-74
2021/08/19 03:38:42;;;;;;;;;;;;;;;16.18;100.00;98798.41;5114058;28;19924;-74
2021/08/19 03:41:11;;;;;;;;;;;;;;;16.16;100.00;98809.38;5113822;28;20363;-74
2021/08/19 03:43:38;;;;;;;;;;;;;;;16.28;100.00;98803.59;5095974;28;19931;-74
2021/08/19 03:46:06;;;;;;;;;;;;;;;16.27;100.00;98801.22;5113702;28;20290;-75
2021/08/19 03:48:32;;;;;;;;;;;;;;;16.13;100.00;98799.00;5113694;28;20287;-74
2021/08/19 03:50:59;;;;;;;;;;;;;;;16.17;100.00;98805.28;5114168;28;19966;-74
2021/08/19 03:53:27;;;;;;;;;;;;;;;16.07;100.00;98800.88;5113832;28;20379;-74
2021/08/19 03:55:55;;;;;;;;;;;;;;;16.30;100.00;98805.16;5094578;28;19931;-74
2021/08/19 03:58:22;;;;;;;;;;;;;;;16.29;100.00;98798.75;5095591;28;19934;-74
2021/08/19 04:00:50;;;;;;;;;;;;;;;16.41;100.00;98797.81;5113592;28;19928;-74
2021/08/19 04:03:18;;;;;;;;;;;;;;;15.92;100.00;98797.88;5113596;28;19924;-74
2021/08/19 04:05:45;;;;;;;;;;;;;;;15.86;100.00;98794.09;5113985;28;19931;-74
2021/08/19 04:08:12;;;;;;;;;;;;;;;15.93;100.00;98788.16;5113740;28;20294;-74
2021/08/19 04:10:39;;;;;;;;;;;;;;;16.02;100.00;98795.88;5114116;28;19927;-74
2021/08/19 04:13:06;;;;;;;;;;;;;;;16.23;100.00;98787.31;5095492;28;19924;-74
2021/08/19 04:15:33;;;;;;;;;;;;;;;16.15;100.00;98791.66;5079071;28;20371;-74
2021/08/19 04:18:00;;;;;;;;;;;;;;;15.98;100.00;98781.94;5095334;28;20022;-74
2021/08/19 04:20:27;;;;;;;;;;;;;;;16.07;100.00;98783.97;5113826;28;19923;-74
2021/08/19 04:22:54;;;;;;;;;;;;;;;15.96;100.00;98775.19;5095480;28;19923;-74
2021/08/19 04:25:22;;;;;;;;;;;;;;;16.03;100.00;98781.31;5113611;28;19930;-74
2021/08/19 04:27:49;;;;;;;;;;;;;;;15.61;100.00;98780.28;5098617;28;19923;-74
2021/08/19 04:30:17;;;;;;;;;;;;;;;15.73;100.00;98784.22;5117261;28;19930;-74
2021/08/19 04:32:44;;;;;;;;;;;;;;;15.96;100.00;98790.06;5117493;28;19928;-74
2021/08/19 04:35:11;;;;;;;;;;;;;;;15.87;100.00;98787.22;5114075;28;20010;-74
2021/08/19 04:37:39;;;;;;;;;;;;;;;15.89;100.00;98790.38;5106988;28;20345;-74
2021/08/19 04:40:06;;;;;;;;;;;;;;;16.10;100.00;98786.66;5107026;28;19950;-74
2021/08/19 04:42:33;;;;;;;;;;;;;;;16.10;100.00;98786.66;5099392;28;19924;-74
2021/08/19 04:45:00;;;;;;;;;;;;;;;16.41;100.00;98774.47;5098766;28;20014;-74
2021/08/19 04:47:27;;;;;;;;;;;;;;;16.27;100.00;98768.19;5117076;28;19963;-74
2021/08/19 04:49:55;;;;;;;;;;;;;;;16.05;100.00;98775.97;5098054;28;19931;-74
2021/08/19 04:52:22;;;;;;;;;;;;;;;16.49;100.00;98772.94;5117187;28;20028;-74
2021/08/19 04:54:49;;;;;;;;;;;;;;;16.14;100.00;98772.41;5114489;28;19946;-74
2021/08/19 04:57:17;;;;;;;;;;;;;;;16.24;100.00;98771.94;5116816;28;19924;-74
2021/08/19 04:59:43;;;;;;;;;;;;;;;16.69;100.00;98762.72;5098721;28;19993;-74
2021/08/19 05:02:10;;;;;;;;;;;;;;;16.60;100.00;98764.78;5098692;28;20026;-74
2021/08/19 05:04:37;;;;;;;;;;;;;;;16.71;100.00;98765.06;5116658;28;19928;-74
2021/08/19 05:07:04;;;;;;;;;;;;;;;16.69;100.00;98764.78;5098760;28;20286;-74
2021/08/19 05:09:33;;;;;;;;;;;;;;;16.85;100.00;98765.22;5116628;28;20398;-74
2021/08/19 05:12:01;;;;;;;;;;;;;;;16.61;100.00;98769.97;5116787;28;20248;-74
2021/08/19 05:14:28;;;;;;;;;;;;;;;16.79;100.00;98771.97;5116296;28;19968;-74
2021/08/19 05:16:55;;;;;;;;;;;;;;;16.97;100.00;98764.25;5116541;28;19931;-74
2021/08/19 05:19:22;;;;;;;;;;;;;;;17.13;100.00;98763.13;5116545;28;19952;-74
2021/08/19 05:21:49;;;;;;;;;;;;;;;16.98;100.00;98765.06;5116600;28;19923;-74
2021/08/19 05:24:16;;;;;;;;;;;;;;;17.01;100.00;98767.69;5095371;28;19924;-74
2021/08/19 05:26:43;;;;;;;;;;;;;;;17.17;100.00;98769.38;5116468;28;19924;-74
2021/08/19 05:29:10;;;;;;;;;;;;;;;17.01;100.00;98762.03;5116034;28;20011;-74
2021/08/19 05:31:37;;;;;;;;;;;;;;;17.22;100.00;98771.56;5064497;28;19963;-74
2021/08/19 05:34:08;;;;;;;;;;;;;;;17.15;100.00;98769.06;5081558;28;19924;-74
2021/08/19 05:36:35;;;;;;;;;;;;;;;17.27;100.00;98763.22;5098240;28;20065;-74
2021/08/19 05:39:04;;;;;;;;;;;;;;;17.32;100.00;98758.97;5115694;28;19935;-74
2021/08/19 05:41:31;;;;;;;;;;;;;;;17.30;100.00;98759.47;5097992;28;19924;-74
2021/08/19 05:43:58;;;;;;;;;;;;;;;17.06;100.00;98763.44;5097060;28;20391;-74
2021/08/19 05:46:25;;;;;;;;;;;;;;;17.09;100.00;98762.50;5091952;28;20349;-74
2021/08/19 05:48:52;;;;;;;;;;;;;;;17.16;100.00;98759.34;5115143;28;20393;-74
2021/08/19 05:51:20;;;;;;;;;;;;;;;17.20;100.00;98762.78;5115429;28;20511;-74
2021/08/19 05:53:47;;;;;;;;;;;;;;;17.24;100.00;98761.38;5113295;28;19932;-74
2021/08/19 05:56:14;;;;;;;;;;;;;;;17.25;100.00;98754.44;5114859;28;20294;-74
2021/08/19 05:58:41;;;;;;;;;;;;;;;17.18;100.00;98759.66;5114494;28;20420;-75
2021/08/19 06:01:09;;;;;;;;;;;;;;;17.11;100.00;98755.13;5116073;28;19946;-74
2021/08/19 06:03:36;;;;;;;;;;;;;;;17.02;100.00;98757.19;5097205;28;19963;-75
2021/08/19 06:06:03;;;;;;;;;;;;;;;16.97;100.00;98755.78;5097411;28;20010;-73
2021/08/19 06:08:30;;;;;;;;;;;;;;;17.07;100.00;98753.75;5109555;28;20378;-73
2021/08/19 06:10:57;;;;;;;;;;;;;;;17.10;100.00;98759.19;5111000;28;19924;-74
2021/08/19 06:13:25;;;;;;;;;;;;;;;16.96;100.00;98754.25;5085852;28;20436;-74
2021/08/19 06:15:54;;;;;;;;;;;;;;;17.08;100.00;98760.94;5073444;28;20629;-73
2021/08/19 06:18:21;;;;;;;;;;;;;;;17.03;100.00;98753.91;5110568;28;20359;-73
2021/08/19 06:20:49;;;;;;;;;;;;;;;17.39;100.00;98755.81;5090498;28;19924;-74
2021/08/19 06:23:16;;;;;;;;;;;;;;;17.02;100.00;98762.84;5104867;28;19924;-73
2021/08/19 06:25:45;;;;;;;;;;;;;;;17.25;100.00;98764.97;5084995;28;19931;-73
2021/08/19 06:28:13;;;;;;;;;;;;;;;17.43;100.00;98765.69;5090187;28;19928;-73
2021/08/19 06:30:40;;;;;;;;;;;;;;;17.52;100.00;98765.66;5090656;28;20065;-73
2021/08/19 06:33:09;;;;;;;;;;;;;;;18.06;100.00;98761.78;5108128;28;19923;-74
2021/08/19 06:35:36;;;;;;;;;;;;;;;18.04;100.00;98755.81;5092770;28;19928;-74
2021/08/19 06:38:04;;;;;;;;;;;;;;;18.05;100.00;98754.56;5102846;28;19951;-74
2021/08/19 06:40:30;;;;;;;;;;;;;;;17.96;100.00;98752.56;5092066;28;20398;-73
2021/08/19 06:42:58;;;;;;;;;;;;;;;17.88;100.00;98745.72;5109122;28;19923;-73
2021/08/19 06:45:25;;;;;;;;;;;;;;;17.55;100.00;98744.94;5079218;28;20425;-73
2021/08/19 06:47:52;;;;;;;;;;;;;;;17.86;100.00;98738.97;5090205;28;19924;-74
2021/08/19 06:50:19;;;;;;;;;;;;;;;17.66;100.00;98744.44;5086969;28;20382;-74
2021/08/19 06:53:00;;;;;;;;;;;;;;;17.63;100.00;98739.75;5088230;28;20016;-73
2021/08/19 06:55:28;;;;;;;;;;;;;;;18.01;100.00;98736.97;5083879;28;19928;-73
2021/08/19 06:57:56;;;;;;;;;;;;;;;17.77;100.00;98739.03;5088893;28;19925;-74
2021/08/19 07:00:23;;;;;;;;;;;;;;;17.77;100.00;98733.38;5083131;28;20057;-73
2021/08/19 07:02:50;;;;;;;;;;;;;;;17.76;100.00;98732.59;5083614;28;19967;-74
2021/08/19 07:05:17;;;;;;;;;;;;;;;17.98;100.00;98740.00;5080176;28;19925;-74
2021/08/19 07:07:45;;;;;;;;;;;;;;;18.36;100.00;98735.16;5080216;28;19924;-74
2021/08/19 07:10:13;;;;;;;;;;;;;;;18.96;100.00;98735.56;5070977;28;19939;-74
2021/08/19 07:12:40;;;;;;;;;;;;;;;20.57;100.00;98718.91;5078955;28;19934;-74
2021/08/19 07:15:08;;;;;;;;;;;;;;;22.20;100.00;98685.84;5078881;28;19939;-77
2021/08/19 07:17:35;;;;;;;;;;;;;;;23.95;100.00;98689.41;5074303;28;20420;-75
2021/08/19 07:20:02;;;;;;;;;;;;;;;25.47;100.00;98678.16;5073511;28;19924;-74
2021/08/19 07:22:30;;;;;;;;;;;;;;;25.39;100.00;98666.53;5069839;28;19932;-75
2021/08/19 07:24:57;;;;;;;;;;;;;;;25.07;100.00;98656.88;5093409;28;19924;-75
2021/08/19 07:27:24;;;;;;;;;;;;;;;24.67;100.00;98674.84;5092435;28;19931;-75
2021/08/19 07:29:51;;;;;;;;;;;;;;;24.02;100.00;98670.97;5093513;28;19931;-75
2021/08/19 07:32:20;;;;;;;;;;;;;;;22.92;100.00;98680.38;5092196;28;19924;-75
2021/08/19 07:34:47;;;;;;;;;;;;;;;22.63;100.00;98683.66;5087740;28;20011;-75
2021/08/19 07:37:15;;;;;;;;;;;;;;;22.27;100.00;98693.09;5078152;28;20326;-77
2021/08/19 07:39:43;;;;;;;;;;;;;;;22.83;100.00;98692.78;5081480;28;19932;-75
2021/08/19 07:42:10;;;;;;;;;;;;;;;22.65;100.00;98687.59;5093027;28;20295;-76
2021/08/19 07:44:37;;;;;;;;;;;;;;;22.47;100.00;98690.09;5075254;28;20501;-76
2021/08/19 07:47:04;;;;;;;;;;;;;;;22.63;100.00;98690.16;5087029;28;19928;-76
2021/08/19 07:49:31;;;;;;;;;;;;;;;23.70;100.00;98689.69;5098421;28;19924;-76
2021/08/19 07:51:58;;;;;;;;;;;;;;;24.67;100.00;98678.47;5090874;28;20014;-76
2021/08/19 07:54:26;;;;;;;;;;;;;;;25.40;100.00;98670.94;5080572;28;19932;-76
2021/08/19 07:56:53;;;;;;;;;;;;;;;26.46;100.00;98672.09;5110703;28;20139;-77
2021/08/19 07:59:20;;;;;;;;;;;;;;;26.49;100.00;98664.53;5102940;28;20298;-78
2021/08/19 08:01:47;;;;;;;;;;;;;;;26.39;100.00;98663.34;5097902;28;19931;-78
2021/08/19 08:04:14;;;;;;;;;;;;;;;25.48;100.00;98668.25;5111282;28;20275;-78
2021/08/19 08:06:41;;;;;;;;;;;;;;;25.46;100.00;98671.66;5099452;28;19924;-77
2021/08/19 08:09:08;;;;;;;;;;;;;;;25.38;100.00;98670.69;5093578;28;20042;-78
2021/08/19 08:11:35;;;;;;;;;;;;;;;26.11;100.00;98665.81;5111185;28;19930;-78
2021/08/19 08:14:06;;;;;;;;;;;;;;;26.07;100.00;98668.16;5106716;28;19924;-78
2021/08/19 08:16:33;;;;;;;;;;;;;;;25.23;100.00;98675.22;5079382;28;20275;-78
2021/08/19 08:19:02;;;;;;;;;;;;;;;25.07;100.00;98674.03;5117649;28;19931;-78
2021/08/19 08:21:30;;;;;;;;;;;;;;;26.16;100.00;98664.94;5117457;28;19924;-79
2021/08/19 08:23:58;;;;;;;;;;;;;;;26.87;100.00;98663.19;5082271;28;20015;-79
2021/08/19 08:26:25;;;;;;;;;;;;;;;27.01;100.00;98661.16;5099172;28;19924;-77
2021/08/19 08:28:54;;;;;;;;;;;;;;;27.21;100.00;98663.44;5099377;28;19927;-78
2021/08/19 08:31:21;;;;;;;;;;;;;;;25.55;100.00;98662.72;5086841;28;19976;-75
2021/08/19 08:33:48;;;;;;;;;;;;;;;25.87;100.00;98660.06;5117152;28;19924;-75
2021/08/19 08:36:15;;;;;;;;;;;;;;;26.56;100.00;98651.66;5098986;28;19923;-75
2021/08/19 08:38:44;;;;;;;;;;;;;;;25.04;100.00;98652.22;5116603;28;19947;-75
2021/08/19 08:41:12;;;;;;;;;;;;;;;23.83;100.00;98664.25;5103665;28;19935;-75
2021/08/19 08:43:40;;;;;;;;;;;;;;;24.82;100.00;98674.47;5103225;28;19951;-76
2021/08/19 08:46:07;;;;;;;;;;;;;;;24.91;100.00;98674.16;5090911;28;20006;-75
2021/08/19 08:48:35;;;;;;;;;;;;;;;24.06;100.00;98672.25;5113731;28;19951;-76
2021/08/19 08:51:27;;;;;;;;;;;;;;;24.66;100.00;98674.06;5113687;28;19931;-76
2021/08/19 08:53:54;;;;;;;;;;;;;;;24.25;100.00;98661.03;5092657;28;19924;-76
2021/08/19 08:56:22;;;;;;;;;;;;;;;24.19;100.00;98663.88;5097510;28;20022;-77
2021/08/19 08:58:51;;;;;;;;;;;;;;;22.58;100.00;98682.38;5094544;28;19924;-76
2021/08/19 09:01:21;;;;;;;;;;;;;;;22.00;100.00;98671.81;5114746;28;19931;-76
2021/08/19 09:03:48;;;;;;;;;;;;;;;21.61;100.00;98678.53;5098006;28;20367;-76
2021/08/19 09:06:16;;;;;;;;;;;;;;;22.44;100.00;98689.06;5116366;28;19923;-77
2021/08/19 09:08:51;;;;;;;;;;;;;;;22.15;100.00;98686.59;5116241;28;19932;-76
2021/08/19 09:11:19;;;;;;;;;;;;;;;20.95;100.00;98692.97;5114814;28;20398;-76
2021/08/19 09:13:46;;;;;;;;;;;;;;;20.64;100.00;98690.06;5080824;28;19924;-76
2021/08/19 09:16:15;;;;;;;;;;;;;;;20.48;100.00;98697.13;5089035;28;19928;-77
2021/08/19 09:18:51;;;;;;;;;;;;;;;20.95;100.00;98685.25;5097743;28;19972;-77
2021/08/19 09:21:25;;;;;;;;;;;;;;;21.12;100.00;98699.59;5108868;28;19931;-77
2021/08/19 09:24:11;;;;;;;;;;;;;;;21.46;100.00;98701.44;5064662;28;20011;-77
2021/08/19 09:26:43;;;;;;;;;;;;;;;21.39;100.00;98696.19;5092197;28;19931;-77
2021/08/19 09:29:13;;;;;;;;;;;;;;;21.84;100.00;98695.22;5098069;28;19970;-77
2021/08/19 09:31:48;;;;;;;;;;;;;;;21.47;100.00;98696.50;5100725;28;19927;-77
2021/08/19 09:34:32;;;;;;;;;;;;;;;21.50;100.00;98689.81;5115713;28;19969;-77
2021/08/19 09:37:03;;;;;;;;;;;;;;;20.84;100.00;98704.97;5096226;28;19930;-77
2021/08/19 09:39:35;;;;;;;;;;;;;;;20.28;100.00;98710.56;5115663;28;19924;-77
2021/08/19 09:42:03;;;;;;;;;;;;;;;19.88;100.00;98707.69;5072701;28;19928;-77
2021/08/19 09:44:39;;;;;;;;;;;;;;;20.26;100.00;98707.44;5101595;28;19974;-77
2021/08/19 09:48:08;;;;;;;;;;;;;;;20.61;100.00;98710.94;5070007;28;19913;-76
2021/08/19 09:51:15;;;;;;;;;;;;;;;20.65;100.00;98705.81;5066974;28;20384;-76
2021/08/19 09:53:45;;;;;;;;;;;;;;;19.98;100.00;98709.88;5067395;28;19924;-76
2021/08/19 09:56:13;;;;;;;;;;;;;;;19.45;100.00;98707.31;5070398;28;19932;-75
2021/08/19 09:58:41;;;;;;;;;;;;;;;19.58;100.00;98707.78;5065270;28;19924;-76
2021/08/19 10:01:08;;;;;;;;;;;;;;;19.64;100.00;98705.78;5070597;27;19951;-78
2021/08/19 10:03:37;;;;;;;;;;;;;;;19.52;100.00;98706.91;5050918;28;20303;-79
2021/08/19 10:06:04;;;;;;;;;;;;;;;19.66;100.00;98700.44;5070398;28;19924;-79
2021/08/19 10:08:32;;;;;;;;;;;;;;;20.16;100.00;98703.19;5069636;28;19929;-80
2021/08/19 10:11:00;;;;;;;;;;;;;;;20.17;100.00;98701.91;5052732;28;19925;-79
2021/08/19 10:13:28;;;;;;;;;;;;;;;20.49;100.00;98693.00;5070864;28;19931;-79
2021/08/19 10:15:55;;;;;;;;;;;;;;;20.85;100.00;98685.91;5069136;28;19948;-79
2021/08/19 10:18:24;;;;;;;;;;;;;;;20.86;100.00;98682.56;5069053;28;19924;-79
2021/08/19 10:21:04;;;;;;;;;;;;;;;21.18;100.00;98680.53;5052373;28;19925;-80
2021/08/19 10:23:35;;;;;;;;;;;;;;;20.98;100.00;98669.25;5052391;28;19925;-79
2021/08/19 10:26:07;;;;;;;;;;;;;;;20.85;100.00;98668.84;5032708;28;19925;-79
2021/08/19 10:28:46;;;;;;;;;;;;;;;21.12;100.00;98671.97;5052858;28;19928;-79
2021/08/19 10:31:14;;;;;;;;;;;;;;;21.13;100.00;98667.84;5063071;28;19933;-84
2021/08/19 10:33:42;;;;;;;;;;;;;;;21.06;100.00;98665.47;5061852;28;19925;-79
2021/08/19 10:36:09;;;;;;;;;;;;;;;21.33;100.00;98672.66;5069442;28;19925;-79
2021/08/19 10:38:40;;;;;;;;;;;;;;;21.29;100.00;98674.94;5064165;28;19933;-78
2021/08/19 10:41:28;;;;;;;;;;;;;;;20.96;100.00;98669.00;5100970;28;19925;-76
2021/08/19 10:44:10;;;;;;;;;;;;;;;20.96;100.00;98686.03;5079311;28;19925;-77
2021/08/19 10:46:38;;;;;;;;;;;;;;;20.81;100.00;98685.34;5078137;28;19960;-76
2021/08/19 10:49:05;;;;;;;;;;;;;;;20.72;100.00;98688.38;5068544;28;19982;-76
2021/08/19 10:51:33;;;;;;;;;;;;;;;20.56;100.00;98686.13;5089762;28;20391;-76
2021/08/19 10:54:20;;;;;;;;;;;;;;;20.44;100.00;98693.75;5089879;28;20322;-77
2021/08/19 10:56:49;;;;;;;;;;;;;;;20.43;100.00;98700.66;5055374;28;20382;-76
2021/08/19 10:59:32;;;;;;;;;;;;;;;20.35;100.00;98699.56;5058539;28;19932;-76
2021/08/19 11:02:00;;;;;;;;;;;;;;;20.37;100.00;98699.06;5076201;28;19928;-76
2021/08/19 11:04:44;;;;;;;;;;;;;;;20.13;100.00;98704.19;5075410;28;20370;-76
2021/08/19 11:07:31;;;;;;;;;;;;;;;20.05;100.00;98709.47;5051614;28;19959;-78
2021/08/19 11:09:58;;;;;;;;;;;;;;;19.91;100.00;98704.66;5070774;28;19970;-75
2021/08/19 11:12:25;;;;;;;;;;;;;;;19.67;100.00;98713.31;5071882;28;19924;-77
2021/08/19 11:14:56;;;;;;;;;;;;;;;20.01;100.00;98713.81;5068297;28;19925;-77
2021/08/19 11:17:27;;;;;;;;;;;;;;;20.32;100.00;98713.97;5057406;28;20073;-79
2021/08/19 11:19:55;;;;;;;;;;;;;;;20.57;100.00;98707.56;5075475;28;19932;-79
2021/08/19 11:22:22;;;;;;;;;;;;;;;19.98;100.00;98709.88;5057762;28;20389;-78
2021/08/19 11:24:49;;;;;;;;;;;;;;;19.96;100.00;98718.13;5091093;28;19925;-78
2021/08/19 11:27:16;;;;;;;;;;;;;;;20.23;100.00;98726.25;5057455;28;20300;-79
2021/08/19 11:29:44;;;;;;;;;;;;;;;20.29;100.00;98723.47;5082341;28;20027;-78
2021/08/19 11:32:25;;;;;;;;;;;;;;;20.20;100.00;98720.78;5057185;28;19925;-78
2021/08/19 11:34:55;;;;;;;;;;;;;;;20.42;100.00;98727.50;5059311;28;20290;-74
2021/08/19 11:37:25;;;;;;;;;;;;;;;20.47;100.00;98711.81;5022987;28;19936;-77
2021/08/19 11:39:54;;;;;;;;;;;;;;;20.61;100.00;98710.94;5054236;28;20029;-77
2021/08/19 11:42:28;;;;;;;;;;;;;;;20.74;100.00;98717.78;5074791;28;19924;-77
2021/08/19 11:45:14;;;;;;;;;;;;;;;20.44;100.00;98715.66;5039756;28;19979;-77
2021/08/19 11:47:43;;;;;;;;;;;;;;;20.23;100.00;98723.41;5057175;28;20341;-77
2021/08/19 11:50:10;;;;;;;;;;;;;;;20.39;100.00;98708.63;5057295;28;19924;-77
2021/08/19 11:52:41;;;;;;;;;;;;;;;20.78;100.00;98720.44;5090660;28;20081;-77
2021/08/19 11:55:09;;;;;;;;;;;;;;;20.41;100.00;98719.47;5072893;28;20399;-77
2021/08/19 11:57:37;;;;;;;;;;;;;;;20.11;100.00;98726.56;5074870;28;19978;-76
2021/08/19 12:00:07;;;;;;;;;;;;;;;20.05;100.00;98732.16;5074604;28;20025;-76
2021/08/19 12:02:40;;;;;;;;;;;;;;;20.10;100.00;98728.59;5056856;28;19974;-76
2021/08/19 12:05:08;;;;;;;;;;;;;;;20.15;100.00;98733.59;5056014;28;20372;-76
2021/08/19 12:07:35;;;;;;;;;;;;;;;19.82;100.00;98735.16;5070948;28;19929;-76
2021/08/19 12:10:03;;;;;;;;;;;;;;;19.45;100.00;98741.31;5044699;28;19925;-76
2021/08/19 12:12:35;;;;;;;;;;;;;;;19.70;100.00;98735.00;5055991;28;19925;-76
2021/08/19 12:15:04;;;;;;;;;;;;;;;19.33;100.00;98744.47;5073773;28;20403;-76
2021/08/19 12:17:31;;;;;;;;;;;;;;;19.28;100.00;98737.44;5073666;28;19925;-76
2021/08/19 12:20:28;;;;;;;;;;;;;;;19.33;100.00;98739.59;5056093;28;20384;-76
2021/08/19 12:22:55;;;;;;;;;;;;;;;19.35;100.00;98737.06;5031089;28;20007;-76
2021/08/19 12:25:26;;;;;;;;;;;;;;;20.10;100.00;98733.53;5055904;28;20395;-76
2021/08/19 12:28:06;;;;;;;;;;;;;;;20.18;100.00;98734.66;5055651;28;20360;-76
2021/08/19 12:30:33;;;;;;;;;;;;;;;20.15;100.00;98730.78;5089017;28;20367;-76
2021/08/19 12:33:04;;;;;;;;;;;;;;;20.01;100.00;98733.66;5072540;28;19924;-76
2021/08/19 12:35:31;;;;;;;;;;;;;;;19.37;100.00;98733.72;5073789;28;19925;-76
2021/08/19 12:37:59;;;;;;;;;;;;;;;19.70;100.00;98734.25;5073502;28;19928;-76
2021/08/19 12:40:29;;;;;;;;;;;;;;;19.98;100.00;98732.56;5073716;28;19925;-76
2021/08/19 12:43:04;;;;;;;;;;;;;;;20.17;100.00;98733.13;5073166;28;20287;-77
2021/08/19 12:45:31;;;;;;;;;;;;;;;20.14;100.00;98725.59;5073415;28;19935;-76